Time;durP1;ratioP1;P1;durP2;ratioP2;P2;SDS_P1;SDS_P2;PMS_P1;PMS_P2;Temp;Humidity;BMP_temperature;BMP_pressure;BME280_temperature;BME280_humidity;BME280_pressure;Samples;Min_cycle;Max_cycle;Signal;HPM_P1;HPM_P2
2021/05/18 00:01:21;;;;;;;27.95;13.70;;;9.60;94.20;;;;;;4994867;28;20022;-88
2021/05/18 00:03:46;;;;;;;27.10;12.68;;;9.50;94.20;;;;;;4981966;28;20475;-88
2021/05/18 00:06:12;;;;;;;23.67;12.93;;;9.50;94.20;;;;;;4987959;28;20019;-87
2021/05/18 00:11:43;;;;;;;29.88;13.75;;;9.50;94.30;;;;;;4983422;28;20041;-88
2021/05/18 00:14:09;;;;;;;31.08;13.93;;;9.30;94.30;;;;;;4992001;28;20045;-87
2021/05/18 00:16:34;;;;;;;30.35;15.20;;;9.30;94.40;;;;;;4980753;28;20127;-87
2021/05/18 00:19:01;;;;;;;29.45;14.98;;;9.30;94.50;;;;;;4981338;28;20034;-88
2021/05/18 00:21:26;;;;;;;31.23;14.60;;;9.20;94.50;;;;;;4985357;28;20042;-88
2021/05/18 00:23:52;;;;;;;26.58;15.45;;;9.20;94.60;;;;;;4981649;28;20233;-88
2021/05/18 00:26:18;;;;;;;34.50;14.73;;;9.20;94.70;;;;;;4981948;28;20026;-87
2021/05/18 00:28:43;;;;;;;30.08;15.32;;;9.20;94.70;;;;;;4992305;28;20029;-87
2021/05/18 00:31:09;;;;;;;31.00;13.57;;;9.10;94.70;;;;;;4984942;28;20447;-87
2021/05/18 00:33:34;;;;;;;25.50;13.98;;;9.10;94.80;;;;;;4984493;28;20291;-88
2021/05/18 00:36:01;;;;;;;29.92;14.50;;;9.10;94.80;;;;;;4981565;28;20029;-87
2021/05/18 00:38:27;;;;;;;28.25;14.75;;;9.10;95.10;;;;;;4978873;28;20033;-89
2021/05/18 00:40:53;;;;;;;27.20;13.20;;;9.10;94.90;;;;;;4979651;28;20041;-88
2021/05/18 00:43:19;;;;;;;30.95;14.13;;;9.10;94.90;;;;;;4983054;28;20101;-88
2021/05/18 00:45:47;;;;;;;27.23;13.90;;;9.10;95.00;;;;;;4981538;28;20137;-88
2021/05/18 00:48:15;;;;;;;27.23;13.20;;;9.10;95.00;;;;;;4981378;28;20026;-88
2021/05/18 00:50:43;;;;;;;28.67;13.40;;;9.10;95.00;;;;;;4980885;28;20544;-88
2021/05/18 00:53:10;;;;;;;24.17;13.75;;;9.20;95.00;;;;;;4981442;28;20038;-89
2021/05/18 00:55:49;;;;;;;26.83;13.93;;;9.10;95.00;;;;;;4980500;28;20034;-88
2021/05/18 00:58:33;;;;;;;30.88;15.98;;;9.10;95.00;;;;;;4983302;28;20492;-88
2021/05/18 01:01:04;;;;;;;33.63;14.70;;;9.10;95.00;;;;;;4985305;28;20745;-87
2021/05/18 01:03:31;;;;;;;30.85;15.55;;;9.10;95.10;;;;;;4982477;28;20048;-87
2021/05/18 01:08:42;;;;;;;28.40;15.02;;;9.20;95.10;;;;;;4990098;28;20084;-88
2021/05/18 01:11:09;;;;;;;28.45;14.55;;;9.20;95.10;;;;;;4984495;28;20804;-86
2021/05/18 01:13:35;;;;;;;35.45;14.98;;;9.20;95.20;;;;;;4997337;28;20033;-88
2021/05/18 01:16:03;;;;;;;33.83;16.10;;;9.20;95.20;;;;;;4981732;28;20041;-88
2021/05/18 01:18:38;;;;;;;26.20;13.63;;;9.20;95.20;;;;;;4989780;28;20029;-86
2021/05/18 01:21:04;;;;;;;35.13;16.45;;;9.30;95.30;;;;;;4980644;28;20045;-88
2021/05/18 01:23:30;;;;;;;32.75;16.05;;;9.30;95.20;;;;;;4986685;28;20257;-88
2021/05/18 01:25:55;;;;;;;28.27;15.55;;;9.30;95.20;;;;;;4997443;28;20455;-88
2021/05/18 01:28:22;;;;;;;28.42;14.82;;;9.30;95.20;;;;;;4982519;28;20118;-87
2021/05/18 01:30:49;;;;;;;31.10;16.42;;;9.40;95.30;;;;;;4981609;28;20046;-88
2021/05/18 01:33:15;;;;;;;27.50;14.70;;;9.40;95.30;;;;;;4986451;28;20035;-88
2021/05/18 01:35:41;;;;;;;31.75;16.23;;;9.50;95.30;;;;;;4983152;28;20028;-88
2021/05/18 01:38:11;;;;;;;32.17;16.33;;;9.50;95.30;;;;;;4993484;28;20112;-88
2021/05/18 01:43:13;;;;;;;27.35;13.90;;;9.50;95.30;;;;;;4991979;28;20057;-87
2021/05/18 01:45:42;;;;;;;25.40;13.70;;;9.50;95.20;;;;;;4982866;28;20034;-87
2021/05/18 01:48:13;;;;;;;31.17;14.77;;;9.50;95.30;;;;;;4979879;28;20030;-87
2021/05/18 01:50:44;;;;;;;28.98;15.35;;;9.60;95.30;;;;;;4980097;28;20038;-87
2021/05/18 01:53:11;;;;;;;30.58;15.60;;;9.60;95.30;;;;;;4993603;28;20036;-87
2021/05/18 01:55:47;;;;;;;32.15;15.73;;;9.60;95.30;;;;;;4985341;28;20480;-87
2021/05/18 01:58:14;;;;;;;28.30;15.40;;;9.70;95.30;;;;;;4983128;28;20026;-87
2021/05/18 02:00:42;;;;;;;35.53;15.05;;;9.70;95.40;;;;;;4983542;28;20030;-87
2021/05/18 02:03:07;;;;;;;29.52;14.90;;;9.80;95.30;;;;;;4984781;28;20068;-88
2021/05/18 02:05:37;;;;;;;30.40;15.02;;;9.80;95.30;;;;;;4983725;28;21525;-87
2021/05/18 02:08:04;;;;;;;33.17;15.82;;;9.80;95.30;;;;;;5058018;28;20245;-88
2021/05/18 02:10:29;;;;;;;32.70;15.48;;;9.80;95.30;;;;;;4996124;28;20046;-88
2021/05/18 02:12:55;;;;;;;23.80;14.30;;;9.90;95.30;;;;;;4994221;28;20033;-87
2021/05/18 02:26:47;;;;;;;26.92;13.80;;;9.90;95.20;;;;;;4992337;28;21515;-87
2021/05/18 02:29:13;;;;;;;20.95;14.65;;;10.00;95.20;;;;;;4983117;28;20025;-87
2021/05/18 02:31:38;;;;;;;24.90;13.88;;;10.00;95.20;;;;;;4986015;28;20046;-87
2021/05/18 02:34:04;;;;;;;31.08;14.90;;;9.90;95.10;;;;;;4982932;28;20909;-87
2021/05/18 02:36:30;;;;;;;27.65;15.05;;;10.00;95.20;;;;;;4995355;28;20026;-87
2021/05/18 02:38:56;;;;;;;27.40;15.48;;;10.00;95.20;;;;;;4985594;28;20057;-87
2021/05/18 02:41:22;;;;;;;24.48;16.05;;;10.00;95.10;;;;;;4980142;28;20029;-87
2021/05/18 02:43:57;;;;;;;28.63;15.23;;;10.00;95.10;;;;;;4994566;28;20057;-87
2021/05/18 02:49:08;;;;;;;27.33;15.85;;;10.00;95.10;;;;;;4986916;28;20571;-87
2021/05/18 02:51:34;;;;;;;29.02;16.08;;;10.00;95.10;;;;;;4980968;28;20102;-87
2021/05/18 02:54:00;;;;;;;29.98;17.13;;;10.00;95.20;;;;;;4984138;28;20050;-87
2021/05/18 02:56:42;;;;;;;32.88;17.92;;;10.00;95.20;;;;;;4990592;28;20151;-87
2021/05/18 02:59:13;;;;;;;30.27;17.20;;;10.00;95.20;;;;;;4987519;28;20026;-86
2021/05/18 03:01:40;;;;;;;30.42;17.42;;;10.00;95.30;;;;;;4983588;28;20029;-86
2021/05/18 03:04:06;;;;;;;27.77;17.95;;;10.00;95.30;;;;;;4980603;28;20538;-87
2021/05/18 03:06:33;;;;;;;29.25;18.38;;;10.00;95.30;;;;;;4983459;28;20039;-87
2021/05/18 03:08:59;;;;;;;29.80;18.30;;;10.00;95.30;;;;;;4978113;28;20054;-87
2021/05/18 03:11:24;;;;;;;35.65;19.30;;;10.00;95.40;;;;;;4979924;28;20049;-86
2021/05/18 03:13:51;;;;;;;31.25;18.83;;;10.00;95.40;;;;;;4995224;28;20053;-87
2021/05/18 03:16:16;;;;;;;35.88;18.77;;;10.00;95.50;;;;;;4981337;28;20037;-86
2021/05/18 03:18:42;;;;;;;33.15;19.23;;;9.90;95.50;;;;;;4968568;28;20393;-87
2021/05/18 03:21:08;;;;;;;30.25;19.58;;;10.00;95.50;;;;;;4979733;28;20075;-87
2021/05/18 03:23:33;;;;;;;31.00;18.85;;;10.00;95.50;;;;;;4980640;28;20066;-87
2021/05/18 03:25:59;;;;;;;33.30;20.27;;;10.00;95.60;;;;;;4985026;28;20477;-89
2021/05/18 03:28:24;;;;;;;35.92;21.67;;;10.00;95.60;;;;;;4991320;28;20128;-88
2021/05/18 03:31:06;;;;;;;38.05;23.17;;;10.00;95.60;;;;;;4979201;28;20042;-85
2021/05/18 03:36:16;;;;;;;35.42;22.27;;;10.00;95.60;;;;;;4990237;28;20758;-87
2021/05/18 03:38:44;;;;;;;36.58;23.17;;;10.00;95.70;;;;;;4987413;28;20060;-88
2021/05/18 03:41:15;;;;;;;35.08;23.42;;;10.10;95.70;;;;;;4981161;28;21455;-87
2021/05/18 04:05:10;;;;;;;36.83;23.67;;;10.10;95.80;;;;;;4992938;28;20068;-88
2021/05/18 04:10:44;;;;;;;46.83;28.60;;;10.20;95.90;;;;;;4990168;28;20061;-88
2021/05/18 04:18:57;;;;;;;44.75;29.10;;;10.20;95.90;;;;;;4995143;28;20550;-87
2021/05/18 04:38:43;;;;;;;44.80;31.25;;;10.30;96.20;;;;;;4995883;28;20500;-88
2021/05/18 04:54:13;;;;;;;49.33;32.33;;;10.60;95.90;;;;;;4990983;28;20030;-87
2021/05/18 04:59:53;;;;;;;48.83;30.90;;;10.60;95.90;;;;;;4968085;28;20037;-88
2021/05/18 05:06:14;;;;;;;47.33;32.38;;;10.70;95.90;;;;;;4945690;28;20526;-88
2021/05/18 05:08:11;;;;;;;47.55;32.47;;;10.70;95.90;;;;;;4990216;28;20059;-88
2021/05/18 05:15:46;;;;;;;50.88;32.28;;;10.80;95.90;;;;;;4952585;28;20122;-89
2021/05/18 05:18:12;;;;;;;50.67;33.13;;;10.80;95.90;;;;;;4963741;28;20098;-88
2021/05/18 05:20:39;;;;;;;47.50;32.47;;;10.90;95.90;;;;;;4951278;28;20034;-88
2021/05/18 05:23:05;;;;;;;52.60;33.65;;;10.90;95.90;;;;;;4954756;28;20136;-88
2021/05/18 05:25:30;;;;;;;47.85;32.95;;;11.00;95.90;;;;;;4946979;28;20050;-88
2021/05/18 05:27:56;;;;;;;51.80;32.55;;;11.00;95.90;;;;;;4951010;28;20042;-88
2021/05/18 05:30:22;;;;;;;54.05;32.95;;;11.10;95.90;;;;;;4952939;28;20587;-87
2021/05/18 05:32:48;;;;;;;49.58;32.88;;;11.10;95.80;;;;;;4950253;28;20035;-88
2021/05/18 05:35:14;;;;;;;47.10;32.22;;;11.10;95.80;;;;;;4952016;28;20039;-88
2021/05/18 05:37:40;;;;;;;47.40;31.17;;;11.20;95.80;;;;;;4953002;28;20053;-88
2021/05/18 05:40:07;;;;;;;45.00;30.35;;;11.30;95.80;;;;;;4956845;28;20027;-88
2021/05/18 05:42:32;;;;;;;42.78;30.60;;;11.30;95.70;;;;;;4951229;28;20126;-86
2021/05/18 05:44:58;;;;;;;41.47;29.15;;;11.40;95.60;;;;;;4967221;28;20164;-88
2021/05/18 05:47:23;;;;;;;46.92;29.52;;;11.50;95.60;;;;;;4965194;28;20098;-88
2021/05/18 05:49:49;;;;;;;40.28;28.63;;;11.50;95.40;;;;;;4968290;28;20027;-88
2021/05/18 05:52:20;;;;;;;39.42;27.70;;;11.50;95.40;;;;;;4965352;28;20039;-89
2021/05/18 05:54:46;;;;;;;45.35;27.90;;;11.50;95.40;;;;;;4952150;28;20038;-87
2021/05/18 05:57:12;;;;;;;44.42;29.38;;;11.60;95.40;;;;;;4965017;28;20034;-89
2021/05/18 05:59:37;;;;;;;41.80;27.17;;;11.70;95.40;;;;;;4970899;28;20028;-88
2021/05/18 06:02:04;;;;;;;40.92;28.65;;;11.80;95.40;;;;;;4960490;28;20039;-90
2021/05/18 06:04:31;;;;;;;40.95;28.05;;;11.90;95.30;;;;;;4957386;28;20031;-87
2021/05/18 06:06:57;;;;;;;34.92;25.65;;;11.90;95.10;;;;;;4965984;28;20038;-87
2021/05/18 06:09:23;;;;;;;39.22;26.02;;;12.00;95.00;;;;;;4968674;28;20522;-87
2021/05/18 06:12:05;;;;;;;35.88;24.83;;;12.00;94.90;;;;;;4958439;28;20046;-88
2021/05/18 06:14:53;;;;;;;35.15;25.75;;;12.00;94.90;;;;;;4971322;28;20027;-88
2021/05/18 06:34:11;;;;;;;;;;;;;;;;;;;;;
2021/05/18 06:49:39;;;;;;;34.42;24.75;;;12.30;94.20;;;;;;4963939;28;20080;-87
2021/05/18 06:52:05;;;;;;;39.95;26.10;;;12.40;94.10;;;;;;4956618;28;20043;-86
2021/05/18 06:54:30;;;;;;;41.05;25.98;;;12.40;94.00;;;;;;4965676;28;20029;-85
2021/05/18 06:57:02;;;;;;;32.38;23.17;;;12.40;93.90;;;;;;4969033;28;20027;-85
2021/05/18 07:01:57;;;;;;;19.42;14.02;;;12.20;93.60;;;;;;4958023;28;20497;-86
2021/05/18 07:04:23;;;;;;;17.85;12.23;;;12.00;93.40;;;;;;4971202;28;20050;-86
2021/05/18 07:09:47;;;;;;;18.13;12.35;;;11.50;93.50;;;;;;4942978;28;20050;-86
2021/05/18 07:12:13;;;;;;;13.00;9.15;;;11.40;93.90;;;;;;4987059;28;20042;-85
2021/05/18 07:14:38;;;;;;;12.90;7.88;;;11.20;94.00;;;;;;4985663;28;20023;-86
2021/05/18 07:17:04;;;;;;;9.68;6.78;;;11.20;94.10;;;;;;4982373;28;20118;-85
2021/05/18 07:19:29;;;;;;;12.23;9.15;;;11.20;94.10;;;;;;4987181;28;20031;-85
2021/05/18 07:21:55;;;;;;;15.35;9.98;;;11.20;94.10;;;;;;4984769;28;20077;-85
2021/05/18 07:24:25;;;;;;;13.38;10.30;;;11.20;94.30;;;;;;4983145;28;20061;-86
2021/05/18 07:26:51;;;;;;;23.35;16.50;;;11.40;94.50;;;;;;4982040;28;20038;-85
2021/05/18 07:29:17;;;;;;;26.67;18.50;;;11.60;94.50;;;;;;4982669;28;20034;-85
2021/05/18 07:31:43;;;;;;;32.28;23.52;;;11.80;94.60;;;;;;4984640;28;20035;-85
2021/05/18 07:34:09;;;;;;;31.77;24.25;;;12.00;94.60;;;;;;4985152;28;20050;-85
2021/05/18 07:36:35;;;;;;;37.38;25.35;;;12.20;94.50;;;;;;4990917;28;20543;-86
2021/05/18 07:39:01;;;;;;;35.30;26.38;;;12.40;94.50;;;;;;4990043;28;20129;-86
2021/05/18 07:41:26;;;;;;;38.10;27.45;;;12.60;94.40;;;;;;4985205;28;20027;-85
2021/05/18 07:43:52;;;;;;;42.92;29.00;;;12.70;94.20;;;;;;4983743;28;20385;-86
2021/05/18 07:46:21;;;;;;;41.72;29.63;;;12.80;94.10;;;;;;4985348;28;20544;-85
2021/05/18 07:49:09;;;;;;;38.17;28.35;;;13.00;94.20;;;;;;4984901;28;20030;-84
2021/05/18 07:59:45;;;;;;;21.67;18.08;;;13.30;93.50;;;;;;4986251;28;20038;-87
2021/05/18 08:02:26;;;;;;;19.40;15.80;;;13.20;93.00;;;;;;4984979;28;20506;-87
2021/05/18 08:07:36;;;;;;;19.83;16.63;;;13.00;92.80;;;;;;4985686;28;20053;-87
2021/05/18 08:10:22;;;;;;;23.40;18.25;;;12.80;92.80;;;;;;5000376;28;20042;-86
2021/05/18 08:12:48;;;;;;;31.35;19.38;;;12.70;92.80;;;;;;4991967;28;20069;-87
2021/05/18 09:34:16;;;;;;;11.18;8.82;;;13.10;92.40;;;;;;5011589;28;20033;-85
2021/05/18 09:42:06;;;;;;;20.33;15.63;;;14.00;91.70;;;;;;5003512;28;20028;-89
2021/05/18 10:26:50;;;;;;;9.40;5.88;;;11.10;93.40;;;;;;5003597;28;20050;-91
2021/05/18 10:36:39;;;;;;;5.57;3.67;;;12.20;93.50;;;;;;5002879;28;20034;-90
2021/05/18 10:39:26;;;;;;;6.53;4.15;;;12.50;93.20;;;;;;5007180;28;20019;-90
2021/05/18 10:41:52;;;;;;;3.65;3.05;;;12.80;92.90;;;;;;4992690;28;20083;-89
2021/05/18 10:44:19;;;;;;;6.22;3.10;;;13.00;92.70;;;;;;4983606;28;20493;-91
2021/05/18 10:46:52;;;;;;;5.93;4.93;;;13.10;92.40;;;;;;4976239;28;20065;-91
2021/05/18 10:49:36;;;;;;;7.07;4.55;;;13.20;92.30;;;;;;4999249;28;20022;-92
2021/05/18 10:52:08;;;;;;;6.53;4.55;;;13.20;92.30;;;;;;4993436;28;20049;-91
2021/05/18 10:54:38;;;;;;;7.32;5.60;;;13.20;92.70;;;;;;4990121;28;20117;-92
2021/05/18 10:57:18;;;;;;;5.50;4.65;;;13.20;92.90;;;;;;4996257;28;20030;-91
2021/05/18 10:59:56;;;;;;;9.85;6.55;;;13.30;92.90;;;;;;4981883;28;20045;-90
2021/05/18 11:02:28;;;;;;;9.63;6.97;;;13.40;92.70;;;;;;4990414;28;20390;-90
2021/05/18 11:05:00;;;;;;;11.05;6.82;;;13.50;92.90;;;;;;4991488;28;20030;-90
2021/05/18 11:07:31;;;;;;;8.68;6.32;;;13.80;93.00;;;;;;5011274;28;20499;-89
2021/05/18 11:09:57;;;;;;;9.57;7.22;;;14.00;92.50;;;;;;4996630;28;20046;-89
2021/05/18 11:12:24;;;;;;;10.70;7.53;;;14.20;92.10;;;;;;5006842;28;20099;-89
2021/05/18 11:15:11;;;;;;;9.23;7.32;;;14.40;91.80;;;;;;4993028;28;20120;-90
2021/05/18 11:17:39;;;;;;;9.93;7.07;;;14.50;91.10;;;;;;4986626;28;20030;-90
2021/05/18 11:20:12;;;;;;;13.00;7.78;;;14.50;90.50;;;;;;4987090;28;20030;-89
2021/05/18 11:25:40;;;;;;;6.15;4.45;;;14.10;90.50;;;;;;5000705;28;20400;-88
2021/05/18 11:28:11;;;;;;;5.20;4.05;;;14.00;89.60;;;;;;5006398;28;20030;-89
2021/05/18 11:30:38;;;;;;;4.82;3.03;;;14.10;87.30;;;;;;4995462;28;20046;-90
2021/05/18 11:33:04;;;;;;;7.07;3.67;;;14.20;85.80;;;;;;4990813;28;20030;-89
2021/05/18 11:35:31;;;;;;;5.50;4.07;;;14.40;85.40;;;;;;4996329;28;20034;-89
2021/05/18 11:38:13;;;;;;;6.30;4.13;;;14.60;86.10;;;;;;4996953;28;20477;-87
2021/05/18 11:40:41;;;;;;;7.03;4.65;;;15.00;85.10;;;;;;4993908;28;20041;-88
2021/05/18 11:43:35;;;;;;;7.22;4.00;;;15.20;82.00;;;;;;4992399;28;20026;-89
2021/05/18 11:46:09;;;;;;;8.32;4.72;;;15.50;83.10;;;;;;4990234;28;20027;-87
2021/05/18 11:48:39;;;;;;;7.10;3.65;;;15.70;83.40;;;;;;4986809;28;20088;-90
2021/05/18 11:51:14;;;;;;;5.75;3.53;;;15.80;81.50;;;;;;4985764;28;20129;-91
2021/05/18 11:53:53;;;;;;;5.43;2.83;;;15.70;78.90;;;;;;4991170;28;20040;-89
2021/05/18 11:56:22;;;;;;;4.85;3.00;;;15.60;78.00;;;;;;4986455;28;20125;-89
2021/05/18 11:58:48;;;;;;;5.75;3.17;;;15.60;78.90;;;;;;4984990;28;20037;-88
2021/05/18 12:01:14;;;;;;;5.50;3.20;;;15.60;76.40;;;;;;4987097;28;20038;-89
2021/05/18 12:03:40;;;;;;;5.75;3.67;;;15.30;73.80;;;;;;4985750;28;20029;-90
2021/05/18 12:06:06;;;;;;;5.32;2.90;;;15.10;75.60;;;;;;4986227;28;20034;-89
2021/05/18 12:08:37;;;;;;;3.88;2.95;;;15.00;76.20;;;;;;4983115;28;20022;-89
2021/05/18 12:11:20;;;;;;;5.50;2.75;;;15.00;76.30;;;;;;4965223;28;20126;-89
2021/05/18 12:13:51;;;;;;;4.10;2.72;;;15.20;76.70;;;;;;4958983;28;20555;-89
2021/05/18 12:16:18;;;;;;;7.95;3.22;;;15.30;77.10;;;;;;4965610;28;20046;-88
2021/05/18 12:18:45;;;;;;;5.07;2.85;;;15.40;75.10;;;;;;4962041;28;20027;-89
2021/05/18 12:21:23;;;;;;;4.05;2.72;;;15.50;73.70;;;;;;4963372;28;20488;-90
2021/05/18 12:24:07;;;;;;;5.10;2.80;;;15.50;74.60;;;;;;4962828;28;20031;-89
2021/05/18 12:27:00;;;;;;;4.43;2.50;;;15.60;72.10;;;;;;4959036;28;20027;-91
2021/05/18 12:29:42;;;;;;;6.05;3.00;;;15.80;71.70;;;;;;4953039;28;20046;-91
2021/05/18 12:32:18;;;;;;;4.88;2.22;;;15.80;71.40;;;;;;4960507;28;20043;-91
2021/05/18 12:34:46;;;;;;;4.43;2.58;;;16.00;70.90;;;;;;4959770;28;20031;-91
2021/05/18 12:37:12;;;;;;;4.53;1.70;;;15.90;70.30;;;;;;4961810;28;20056;-91
2021/05/18 12:39:42;;;;;;;3.78;1.85;;;15.80;69.60;;;;;;4964033;28;20023;-90
2021/05/18 12:42:29;;;;;;;4.18;1.60;;;15.80;69.50;;;;;;4965408;28;20088;-91
2021/05/18 12:44:59;;;;;;;7.72;2.90;;;15.70;68.70;;;;;;4961521;28;20490;-91
2021/05/18 12:47:43;;;;;;;4.85;2.38;;;15.70;69.80;;;;;;4965302;28;20069;-91
2021/05/18 12:50:12;;;;;;;5.10;2.05;;;15.80;69.50;;;;;;4979382;28;20026;-90
2021/05/18 12:52:41;;;;;;;5.13;2.55;;;15.80;69.20;;;;;;4960559;28;20100;-90
2021/05/18 12:55:28;;;;;;;5.15;2.38;;;16.10;69.80;;;;;;4964040;28;20053;-91
2021/05/18 12:57:57;;;;;;;3.13;2.10;;;16.30;68.40;;;;;;4957941;28;20027;-90
2021/05/18 13:00:23;;;;;;;4.07;1.92;;;16.30;67.30;;;;;;4966087;28;20145;-90
2021/05/18 13:02:50;;;;;;;5.15;2.00;;;16.20;66.20;;;;;;4970667;28;20482;-90
2021/05/18 13:05:21;;;;;;;3.78;1.70;;;16.30;67.80;;;;;;4967097;28;20058;-90
2021/05/18 13:08:16;;;;;;;6.47;1.77;;;16.40;65.70;;;;;;4961899;28;20057;-91
2021/05/18 13:13:14;;;;;;;4.82;2.40;;;16.30;66.60;;;;;;5007284;28;20086;-90
2021/05/18 13:15:40;;;;;;;2.90;1.77;;;16.40;66.20;;;;;;4986635;28;20030;-91
2021/05/18 13:18:09;;;;;;;6.50;2.67;;;16.20;64.90;;;;;;4983674;28;20022;-90
2021/05/18 13:20:48;;;;;;;2.72;1.67;;;16.00;65.20;;;;;;5001646;28;20018;-91
2021/05/18 13:28:44;;;;;;;5.30;1.50;;;15.80;69.20;;;;;;5000977;28;20381;-90
2021/05/18 13:31:10;;;;;;;3.58;1.05;;;16.10;66.20;;;;;;4986067;28;20088;-89
2021/05/18 13:33:35;;;;;;;4.95;1.30;;;16.20;66.70;;;;;;4999636;28;20030;-91
2021/05/18 13:36:01;;;;;;;3.33;1.20;;;16.30;64.90;;;;;;5003093;28;20026;-91
2021/05/18 13:38:27;;;;;;;2.65;1.08;;;16.30;64.30;;;;;;4985617;28;20091;-92
2021/05/18 13:40:52;;;;;;;2.60;1.10;;;16.10;63.30;;;;;;4983977;28;20033;-90
2021/05/18 13:43:18;;;;;;;3.05;1.23;;;15.90;64.00;;;;;;4989717;28;20018;-91
2021/05/18 13:45:44;;;;;;;3.40;1.23;;;15.80;64.00;;;;;;5004872;28;20509;-89
2021/05/18 13:48:10;;;;;;;4.22;0.95;;;15.70;63.00;;;;;;4992967;28;20029;-90
2021/05/18 13:50:38;;;;;;;2.50;1.00;;;15.60;64.30;;;;;;4996195;28;20034;-90
2021/05/18 13:53:05;;;;;;;3.30;1.00;;;15.80;64.00;;;;;;4990140;28;20030;-91
2021/05/18 13:55:30;;;;;;;3.25;1.40;;;15.70;63.10;;;;;;4987864;28;20030;-89
2021/05/18 13:57:56;;;;;;;3.90;1.80;;;15.80;64.20;;;;;;4991504;28;20026;-90
2021/05/18 14:00:22;;;;;;;5.32;1.23;;;16.10;65.60;;;;;;4986450;28;20501;-89
2021/05/18 14:02:48;;;;;;;3.17;1.23;;;16.40;63.80;;;;;;5000066;28;20029;-90
2021/05/18 14:05:24;;;;;;;2.95;1.30;;;16.80;63.10;;;;;;4998490;28;20080;-90
2021/05/18 14:10:56;;;;;;;5.63;1.73;;;17.10;63.40;;;;;;5010808;28;20049;-91
2021/05/18 14:13:23;;;;;;;3.55;1.67;;;17.20;62.50;;;;;;4999322;28;20019;-90
2021/05/18 14:15:49;;;;;;;2.88;1.45;;;17.10;61.20;;;;;;4977670;28;20124;-89
2021/05/18 14:18:15;;;;;;;3.65;1.30;;;17.10;62.10;;;;;;4979884;28;20030;-88
2021/05/18 14:20:41;;;;;;;4.18;1.10;;;17.30;62.40;;;;;;4994565;28;20545;-89
2021/05/18 14:23:07;;;;;;;4.00;1.50;;;17.40;60.30;;;;;;4994019;28;20133;-91
2021/05/18 14:25:33;;;;;;;4.20;1.50;;;17.20;58.90;;;;;;4993326;28;20021;-90
2021/05/18 14:27:59;;;;;;;3.00;1.20;;;17.00;59.40;;;;;;5004718;28;20031;-91
2021/05/18 14:30:25;;;;;;;3.50;1.20;;;16.90;60.90;;;;;;5002356;28;20038;-90
2021/05/18 14:32:51;;;;;;;3.08;1.10;;;16.80;59.80;;;;;;4994808;28;20033;-90
2021/05/18 14:35:17;;;;;;;1.75;0.75;;;16.70;59.60;;;;;;5005782;28;20097;-90
2021/05/18 14:37:47;;;;;;;4.40;1.10;;;16.50;60.50;;;;;;4985472;28;20030;-91
2021/05/18 14:43:02;;;;;;;4.40;1.35;;;16.30;61.60;;;;;;5011431;28;20121;-90
2021/05/18 14:45:33;;;;;;;3.03;1.10;;;16.40;61.40;;;;;;4976022;28;20513;-91
2021/05/18 14:56:00;;;;;;;2.55;0.70;;;16.60;59.40;;;;;;5007703;28;20083;-90
2021/05/18 14:58:26;;;;;;;1.70;0.80;;;16.40;59.60;;;;;;4995145;28;20427;-90
2021/05/18 15:00:52;;;;;;;2.10;0.70;;;16.30;60.10;;;;;;4994433;28;20421;-90
2021/05/18 15:03:17;;;;;;;3.30;0.77;;;16.40;60.50;;;;;;4994099;28;20064;-92
2021/05/18 15:05:43;;;;;;;1.55;0.40;;;16.70;60.70;;;;;;4993532;28;20030;-91
2021/05/18 15:08:09;;;;;;;1.90;0.70;;;16.80;59.50;;;;;;4995565;28;20106;-91
2021/05/18 15:10:35;;;;;;;3.00;0.50;;;16.80;59.30;;;;;;5012641;28;20046;-93
2021/05/18 15:13:02;;;;;;;1.73;0.38;;;16.80;59.20;;;;;;4997063;28;20083;-88
2021/05/18 15:15:28;;;;;;;1.85;0.45;;;16.90;59.60;;;;;;4993087;28;20370;-91
2021/05/18 15:17:57;;;;;;;1.30;0.30;;;17.00;58.30;;;;;;4976211;28;20133;-92
2021/05/18 15:20:27;;;;;;;1.88;0.50;;;17.20;58.40;;;;;;4988109;28;20533;-91
2021/05/18 15:22:53;;;;;;;1.30;0.40;;;17.20;57.70;;;;;;4980698;28;20546;-92
2021/05/18 15:25:21;;;;;;;2.25;0.30;;;17.40;58.40;;;;;;4988828;28;20026;-92
2021/05/18 15:27:46;;;;;;;1.33;0.22;;;17.50;57.90;;;;;;4988977;28;20034;-92
2021/05/18 15:30:12;;;;;;;1.50;0.47;;;17.60;57.30;;;;;;4981504;28;20010;-91
2021/05/18 15:32:39;;;;;;;2.47;0.28;;;18.30;57.00;;;;;;5065380;28;20033;-93
2021/05/18 15:35:06;;;;;;;1.55;0.30;;;18.90;55.20;;;;;;5017327;28;20390;-92
2021/05/18 15:37:33;;;;;;;1.65;0.20;;;19.40;52.90;;;;;;4986675;28;20022;-92
2021/05/18 15:40:01;;;;;;;1.67;0.32;;;19.90;52.60;;;;;;4986411;28;20030;-91
2021/05/18 15:42:26;;;;;;;1.35;0.28;;;20.30;51.70;;;;;;4989302;28;20046;-94
2021/05/18 15:44:52;;;;;;;1.42;0.20;;;20.60;50.00;;;;;;5000987;28;20054;-92
2021/05/18 15:47:19;;;;;;;1.60;0.30;;;20.70;48.80;;;;;;4985763;28;20026;-92
2021/05/18 15:49:44;;;;;;;2.20;0.30;;;20.70;48.60;;;;;;4993117;28;20022;-92
2021/05/18 15:52:10;;;;;;;2.83;0.20;;;20.70;47.90;;;;;;4985486;28;20057;-92
2021/05/18 15:54:35;;;;;;;0.60;0.20;;;21.00;47.30;;;;;;4990720;28;20090;-92
2021/05/18 15:57:01;;;;;;;2.30;0.40;;;21.40;46.90;;;;;;5007641;28;20042;-92
2021/05/18 15:59:27;;;;;;;1.33;0.20;;;21.60;46.40;;;;;;4994505;28;20037;-93
2021/05/18 16:01:53;;;;;;;1.95;0.20;;;21.50;44.90;;;;;;5009731;28;20573;-93
2021/05/18 16:04:19;;;;;;;2.03;0.38;;;21.10;44.60;;;;;;5011425;28;20032;-92
2021/05/18 16:06:44;;;;;;;2.45;0.20;;;20.90;45.20;;;;;;4985555;28;20385;-92
2021/05/18 16:09:13;;;;;;;0.47;0.20;;;21.00;45.70;;;;;;4996713;28;20046;-93
2021/05/18 16:11:40;;;;;;;1.45;0.20;;;21.20;44.80;;;;;;5004902;28;20041;-92
2021/05/18 16:14:06;;;;;;;1.92;0.30;;;21.30;44.50;;;;;;5013001;28;20033;-91
2021/05/18 16:16:32;;;;;;;1.65;0.30;;;21.00;44.70;;;;;;5008776;28;20026;-90
2021/05/18 16:18:58;;;;;;;1.70;0.20;;;20.70;45.10;;;;;;5006517;28;20030;-91
2021/05/18 16:21:24;;;;;;;1.63;0.30;;;20.40;46.60;;;;;;5003033;28;20117;-91
2021/05/18 16:23:56;;;;;;;1.23;0.25;;;20.30;46.30;;;;;;4999594;28;20031;-90
2021/05/18 16:26:27;;;;;;;2.13;0.30;;;19.80;47.60;;;;;;4993583;28;20080;-90
2021/05/18 16:28:54;;;;;;;3.80;0.30;;;19.10;48.30;;;;;;4991120;28;20030;-89
2021/05/18 16:31:22;;;;;;;1.02;0.43;;;18.70;49.20;;;;;;4986786;28;20038;-89
2021/05/18 16:33:47;;;;;;;0.90;0.30;;;18.60;49.30;;;;;;4993563;28;20022;-90
2021/05/18 16:36:15;;;;;;;3.92;0.50;;;18.30;50.40;;;;;;4981839;28;20092;-89
2021/05/18 16:38:41;;;;;;;3.55;0.47;;;18.10;51.50;;;;;;4976922;28;20113;-90
2021/05/18 16:41:07;;;;;;;0.93;0.30;;;17.70;51.90;;;;;;4983918;28;20026;-90
2021/05/18 16:43:33;;;;;;;2.92;0.20;;;17.40;53.30;;;;;;4992447;28;20023;-89
2021/05/18 16:45:59;;;;;;;0.90;0.20;;;17.10;54.60;;;;;;4993043;28;20129;-90
2021/05/18 16:48:27;;;;;;;1.05;0.20;;;17.20;54.20;;;;;;4993737;28;20034;-91
2021/05/18 16:50:53;;;;;;;1.52;0.30;;;17.20;54.50;;;;;;5014851;28;20034;-90
2021/05/18 16:53:19;;;;;;;2.75;0.30;;;17.40;54.70;;;;;;5014397;28;20477;-90
2021/05/18 16:55:44;;;;;;;1.23;0.35;;;17.90;53.40;;;;;;5013373;28;20017;-90
2021/05/18 16:58:10;;;;;;;1.23;0.28;;;18.50;52.50;;;;;;4995611;28;20041;-90
2021/05/18 17:00:36;;;;;;;0.82;0.20;;;19.10;51.40;;;;;;4985745;28;20022;-90
2021/05/18 17:03:06;;;;;;;0.50;0.20;;;19.70;50.00;;;;;;4997317;28;20432;-91
2021/05/18 17:05:32;;;;;;;4.05;0.20;;;20.10;48.80;;;;;;5000875;28;20041;-90
2021/05/18 17:08:08;;;;;;;2.28;0.40;;;20.30;47.70;;;;;;4996547;28;20022;-90
2021/05/18 17:10:38;;;;;;;1.27;0.30;;;20.50;47.60;;;;;;4990268;28;20145;-90
2021/05/18 17:13:10;;;;;;;1.08;0.30;;;20.60;47.70;;;;;;4967656;28;20428;-90
2021/05/18 17:15:37;;;;;;;2.40;0.22;;;20.90;47.30;;;;;;4965622;28;20038;-92
2021/05/18 17:18:07;;;;;;;1.15;0.22;;;20.60;46.80;;;;;;4973696;28;20059;-91
2021/05/18 17:20:38;;;;;;;1.67;0.30;;;19.60;47.90;;;;;;4978455;28;20027;-92
2021/05/18 17:23:05;;;;;;;1.17;0.30;;;18.50;49.90;;;;;;4962152;28;20035;-89
2021/05/18 17:25:35;;;;;;;1.23;0.30;;;17.70;52.50;;;;;;4971180;28;20030;-90
2021/05/18 17:28:01;;;;;;;1.80;0.20;;;17.00;54.00;;;;;;4978007;28;20035;-89
2021/05/18 17:30:31;;;;;;;1.92;0.30;;;16.60;55.40;;;;;;4968337;28;20074;-90
2021/05/18 17:32:58;;;;;;;2.65;0.30;;;16.20;56.40;;;;;;4961225;28;20284;-91
2021/05/18 17:35:25;;;;;;;1.95;0.30;;;15.90;57.60;;;;;;4994780;28;20027;-90
2021/05/18 17:37:52;;;;;;;0.60;0.20;;;15.70;57.90;;;;;;4960272;28;20096;-92
2021/05/18 17:40:19;;;;;;;1.48;0.30;;;15.60;57.90;;;;;;4975086;28;20031;-91
2021/05/18 17:42:50;;;;;;;1.88;0.20;;;15.50;58.00;;;;;;4975674;28;20035;-91
2021/05/18 17:45:17;;;;;;;0.80;0.20;;;15.30;58.70;;;;;;4973332;28;20046;-91
2021/05/18 17:48:08;;;;;;;1.75;0.20;;;15.30;58.90;;;;;;4972115;28;20041;-91
2021/05/18 17:50:39;;;;;;;1.65;0.30;;;15.20;58.60;;;;;;4974477;28;20070;-91